Time;durP1;ratioP1;P1;durP2;ratioP2;P2;SDS_P1;SDS_P2;PMS_P1;PMS_P2;Temp;Humidity;BMP_temperature;BMP_pressure;BME280_temperature;BME280_humidity;BME280_pressure;Samples;Min_cycle;Max_cycle;Signal;HPM_P1;HPM_P2
2021/09/15 00:00:11;;;;;;;;;;;;;;;11.84;89.34;98311.11;1641224;87;20401;-83
2021/09/15 00:02:39;;;;;;;;;;;;;;;11.85;88.78;98305.12;1641315;85;20130;-80
2021/09/15 00:05:07;;;;;;;;;;;;;;;11.75;89.58;98302.45;1642172;86;20408;-83
2021/09/15 00:07:34;;;;;;;;;;;;;;;11.68;89.04;98300.58;1638270;87;20153;-78
2021/09/15 00:10:01;;;;;;;;;;;;;;;11.61;89.19;98305.50;1634891;88;21730;-83
2021/09/15 00:12:27;;;;;;;;;;;;;;;11.56;88.83;98296.86;1634793;88;20150;-78
2021/09/15 00:14:54;;;;;;;;;;;;;;;11.46;88.09;98303.14;1634785;88;20173;-82
2021/09/15 00:17:21;;;;;;;;;;;;;;;11.34;89.73;98303.99;1634904;88;20209;-78
2021/09/15 00:19:48;;;;;;;;;;;;;;;11.27;89.80;98300.21;1634773;87;20148;-78
2021/09/15 00:22:15;;;;;;;;;;;;;;;11.23;89.88;98304.58;1635099;87;21019;-78
2021/09/15 00:24:42;;;;;;;;;;;;;;;11.22;89.89;98300.80;1634718;87;20186;-83
2021/09/15 00:27:08;;;;;;;;;;;;;;;11.18;90.58;98300.52;1634998;88;20209;-83
2021/09/15 00:29:38;;;;;;;;;;;;;;;11.16;89.84;98299.99;1629190;87;20179;-83
2021/09/15 00:32:05;;;;;;;;;;;;;;;11.26;89.05;98300.50;1634899;85;20154;-78
2021/09/15 00:34:32;;;;;;;;;;;;;;;11.18;90.58;98307.30;1634769;88;21797;-83
2021/09/15 00:36:59;;;;;;;;;;;;;;;11.21;90.13;98307.31;1634846;87;20205;-83
2021/09/15 00:39:25;;;;;;;;;;;;;;;11.24;90.74;98307.56;1634423;87;20150;-83
2021/09/15 00:41:52;;;;;;;;;;;;;;;11.19;90.18;98309.47;1631260;87;21166;-83
2021/09/15 00:44:19;;;;;;;;;;;;;;;11.06;89.81;98313.59;1634676;87;20139;-78
2021/09/15 00:46:46;;;;;;;;;;;;;;;11.05;89.79;98320.11;1630035;86;22367;-78
2021/09/15 00:49:13;;;;;;;;;;;;;;;10.96;89.45;98312.27;1634618;88;20138;-83
2021/09/15 00:51:41;;;;;;;;;;;;;;;10.87;89.05;98321.50;1634861;88;20351;-83
2021/09/15 00:54:09;;;;;;;;;;;;;;;10.79;88.95;98319.34;1634722;88;20720;-78
2021/09/15 00:56:35;;;;;;;;;;;;;;;10.72;88.82;98323.69;1635097;88;20493;-84
2021/09/15 00:59:02;;;;;;;;;;;;;;;10.63;88.85;98321.80;1634705;88;21021;-83
2021/09/15 01:01:29;;;;;;;;;;;;;;;10.56;88.50;98321.26;1634811;87;20555;-78
2021/09/15 01:03:56;;;;;;;;;;;;;;;10.43;90.06;98330.22;1634714;87;20142;-78
2021/09/15 01:06:23;;;;;;;;;;;;;;;10.37;91.29;98321.81;1618055;87;20161;-83
2021/09/15 01:08:50;;;;;;;;;;;;;;;10.37;90.68;98314.23;1634924;88;20161;-83
2021/09/15 01:11:17;;;;;;;;;;;;;;;10.33;91.16;98319.90;1635263;88;21006;-78
2021/09/15 01:13:43;;;;;;;;;;;;;;;10.33;91.40;98319.36;1634916;88;20178;-78
2021/09/15 01:16:10;;;;;;;;;;;;;;;10.33;91.25;98318.55;1616275;88;20184;-78
2021/09/15 01:18:37;;;;;;;;;;;;;;;10.28;91.20;98315.31;1634941;88;20169;-84
2021/09/15 01:21:07;;;;;;;;;;;;;;;10.30;91.03;98314.48;1635110;86;20154;-79
2021/09/15 01:23:34;;;;;;;;;;;;;;;10.30;91.12;98310.42;1634938;88;21816;-78
2021/09/15 01:26:01;;;;;;;;;;;;;;;10.29;91.30;98307.45;1635145;88;20188;-83
2021/09/15 01:28:28;;;;;;;;;;;;;;;10.27;91.17;98300.14;1634801;88;20141;-78
2021/09/15 01:30:55;;;;;;;;;;;;;;;10.27;91.41;98310.17;1635049;86;20169;-83
2021/09/15 01:33:21;;;;;;;;;;;;;;;10.24;91.38;98303.38;1616268;88;20204;-84
2021/09/15 01:35:48;;;;;;;;;;;;;;;10.24;91.46;98306.63;1635123;86;20712;-78
2021/09/15 01:38:15;;;;;;;;;;;;;;;10.22;91.25;98308.77;1634981;88;20169;-83
2021/09/15 01:40:42;;;;;;;;;;;;;;;10.21;90.82;98304.44;1634820;86;20224;-78
2021/09/15 01:43:09;;;;;;;;;;;;;;;10.19;91.13;98304.71;1616396;88;20436;-83
2021/09/15 01:45:35;;;;;;;;;;;;;;;10.13;91.25;98303.89;1634847;88;20405;-78
2021/09/15 01:48:02;;;;;;;;;;;;;;;10.09;91.53;98300.65;1635033;88;20983;-78
2021/09/15 01:50:29;;;;;;;;;;;;;;;10.04;91.81;98297.92;1634762;88;20155;-78
2021/09/15 01:52:56;;;;;;;;;;;;;;;10.02;91.96;98307.67;1635075;88;20149;-78
2021/09/15 01:55:25;;;;;;;;;;;;;;;10.03;92.00;98303.88;1634840;88;20161;-83
2021/09/15 01:57:52;;;;;;;;;;;;;;;10.03;91.93;98307.94;1635079;88;20203;-83
2021/09/15 02:00:18;;;;;;;;;;;;;;;10.05;91.78;98304.42;1635154;88;21017;-78
2021/09/15 02:02:48;;;;;;;;;;;;;;;10.04;92.28;98310.92;1635354;86;20125;-78
2021/09/15 02:05:14;;;;;;;;;;;;;;;10.05;92.14;98307.13;1631670;86;20170;-78
2021/09/15 02:07:41;;;;;;;;;;;;;;;10.04;91.66;98304.16;1661017;86;20169;-78
2021/09/15 02:10:09;;;;;;;;;;;;;;;10.02;91.41;98304.97;1643566;87;20166;-78
2021/09/15 02:12:39;;;;;;;;;;;;;;;10.03;91.41;98304.42;1643954;87;20959;-78
2021/09/15 02:15:07;;;;;;;;;;;;;;;10.02;91.61;98304.16;1643632;85;20170;-83
2021/09/15 02:17:35;;;;;;;;;;;;;;;10.00;91.72;98303.08;1643980;87;20137;-78
2021/09/15 02:20:03;;;;;;;;;;;;;;;9.98;92.00;98302.52;1643707;86;20176;-83
2021/09/15 02:22:30;;;;;;;;;;;;;;;9.98;91.23;98297.09;1614440;87;20846;-78
2021/09/15 02:24:56;;;;;;;;;;;;;;;9.94;92.88;98289.80;1643735;87;21041;-83
2021/09/15 02:27:23;;;;;;;;;;;;;;;9.99;92.46;98292.49;1644035;87;20543;-83
2021/09/15 02:29:50;;;;;;;;;;;;;;;10.01;92.58;98292.52;1643868;87;20421;-78
2021/09/15 02:32:17;;;;;;;;;;;;;;;10.04;92.81;98292.51;1644077;86;20480;-83
2021/09/15 02:34:46;;;;;;;;;;;;;;;10.08;92.12;98288.16;1643882;86;20452;-78
2021/09/15 02:37:12;;;;;;;;;;;;;;;10.17;92.05;98296.05;1644075;87;21252;-78
2021/09/15 02:39:39;;;;;;;;;;;;;;;10.22;92.61;98293.36;1614249;87;20137;-83
2021/09/15 02:42:06;;;;;;;;;;;;;;;10.18;92.20;98297.13;1644093;86;20197;-78
2021/09/15 02:44:32;;;;;;;;;;;;;;;10.17;91.79;98290.64;1614395;87;20138;-78
2021/09/15 02:46:59;;;;;;;;;;;;;;;10.22;92.89;98292.52;1644183;87;20399;-83
2021/09/15 02:49:31;;;;;;;;;;;;;;;10.24;92.43;98293.89;1643868;86;21027;-83
2021/09/15 02:51:55;;;;;;;;;;;;;;;10.24;91.77;98295.80;1643094;87;20173;-83
2021/09/15 02:54:22;;;;;;;;;;;;;;;10.16;91.33;98297.11;1643880;86;20142;-78
2021/09/15 02:56:49;;;;;;;;;;;;;;;10.09;91.39;98300.65;1614587;87;20206;-83
2021/09/15 02:59:15;;;;;;;;;;;;;;;10.00;90.88;98304.43;1643826;87;20150;-82
2021/09/15 03:01:42;;;;;;;;;;;;;;;9.93;91.45;98309.83;1644649;87;21123;-78
2021/09/15 03:04:09;;;;;;;;;;;;;;;9.88;91.55;98301.14;1614136;87;20150;-78
2021/09/15 03:06:36;;;;;;;;;;;;;;;9.79;92.07;98298.16;1643712;86;20176;-83
2021/09/15 03:09:03;;;;;;;;;;;;;;;9.75;92.03;98298.97;1643658;87;20150;-78
2021/09/15 03:11:30;;;;;;;;;;;;;;;9.72;91.80;98306.25;1643880;87;20220;-78
2021/09/15 03:13:56;;;;;;;;;;;;;;;9.63;91.83;98295.67;1641934;87;21022;-78
2021/09/15 03:16:25;;;;;;;;;;;;;;;9.64;92.36;98294.05;1641425;87;20485;-83
2021/09/15 03:18:52;;;;;;;;;;;;;;;9.68;92.20;98301.92;1641364;87;20146;-83
2021/09/15 03:21:18;;;;;;;;;;;;;;;9.65;92.25;98292.97;1641477;85;20209;-82
2021/09/15 03:23:45;;;;;;;;;;;;;;;9.67;91.88;98298.95;1641419;87;20105;-83
2021/09/15 03:26:12;;;;;;;;;;;;;;;9.60;91.85;98292.97;1641487;87;20903;-83
2021/09/15 03:28:39;;;;;;;;;;;;;;;9.56;91.82;98292.67;1641288;87;20141;-83
2021/09/15 03:31:06;;;;;;;;;;;;;;;9.55;91.34;98295.11;1641795;87;20216;-78
2021/09/15 03:33:32;;;;;;;;;;;;;;;9.54;91.58;98292.67;1641466;87;20139;-78
2021/09/15 03:35:59;;;;;;;;;;;;;;;9.53;91.70;98289.70;1641584;87;20206;-78
2021/09/15 03:38:26;;;;;;;;;;;;;;;9.52;92.02;98293.48;1641425;87;20866;-83
2021/09/15 03:40:53;;;;;;;;;;;;;;;9.51;92.03;98290.52;1641168;87;20158;-83
2021/09/15 03:43:19;;;;;;;;;;;;;;;9.40;93.06;98290.19;1641505;87;20138;-83
2021/09/15 03:45:46;;;;;;;;;;;;;;;9.35;93.42;98291.53;1624690;86;20453;-82
2021/09/15 03:48:13;;;;;;;;;;;;;;;9.35;93.45;98296.95;1642797;87;20430;-83
2021/09/15 03:50:40;;;;;;;;;;;;;;;9.35;92.26;98295.05;1641177;85;21638;-83
2021/09/15 03:53:07;;;;;;;;;;;;;;;9.34;92.49;98294.78;1641384;87;20130;-83
2021/09/15 03:55:33;;;;;;;;;;;;;;;9.32;92.84;98296.95;1641165;87;20145;-78
2021/09/15 03:58:00;;;;;;;;;;;;;;;9.35;91.80;98299.66;1641466;87;20146;-83
2021/09/15 04:00:27;;;;;;;;;;;;;;;9.32;92.43;98299.11;1641199;87;20150;-78
2021/09/15 04:02:54;;;;;;;;;;;;;;;9.30;92.21;98305.30;1642010;87;20906;-83
2021/09/15 04:05:20;;;;;;;;;;;;;;;9.31;92.33;98305.59;1641310;87;20142;-78
2021/09/15 04:07:47;;;;;;;;;;;;;;;9.31;92.08;98302.89;1666958;86;20146;-78
2021/09/15 04:10:14;;;;;;;;;;;;;;;9.28;92.20;98308.81;1667518;84;20165;-78
2021/09/15 04:12:41;;;;;;;;;;;;;;;9.27;91.87;98313.14;1667976;85;20193;-78
2021/09/15 04:15:08;;;;;;;;;;;;;;;9.27;92.24;98309.08;1648036;86;22262;-78
2021/09/15 04:17:35;;;;;;;;;;;;;;;9.23;92.06;98307.45;1667760;86;20119;-78
2021/09/15 04:20:05;;;;;;;;;;;;;;;9.18;92.71;98304.72;1667622;85;20424;-82
2021/09/15 04:22:33;;;;;;;;;;;;;;;9.18;93.17;98300.66;1667895;86;20465;-83
2021/09/15 04:33:00;;;;;;;;;;;;;;;9.16;93.46;98301.47;1668684;86;20146;-78
2021/09/15 04:35:27;;;;;;;;;;;;;;;9.20;93.38;98297.15;1667413;86;20106;-78
2021/09/15 04:37:54;;;;;;;;;;;;;;;9.26;92.95;98299.34;1667721;86;20150;-83
2021/09/15 04:40:20;;;;;;;;;;;;;;;9.29;93.02;98293.40;1667385;85;21015;-78
2021/09/15 04:42:47;;;;;;;;;;;;;;;9.28;93.53;98287.72;1667654;86;20138;-79
2021/09/15 04:45:14;;;;;;;;;;;;;;;9.33;93.45;98294.52;1667465;86;20417;-78
2021/09/15 04:47:41;;;;;;;;;;;;;;;9.34;93.86;98283.97;1667687;86;20634;-83
2021/09/15 04:50:08;;;;;;;;;;;;;;;9.38;93.63;98282.88;1667533;85;20142;-83
2021/09/15 04:52:35;;;;;;;;;;;;;;;9.43;93.11;98285.62;1667749;86;20965;-78
2021/09/15 04:55:02;;;;;;;;;;;;;;;9.47;92.96;98293.46;1667536;86;20155;-83
2021/09/15 04:57:29;;;;;;;;;;;;;;;9.49;92.40;98298.91;1646841;86;20425;-83
2021/09/15 04:59:56;;;;;;;;;;;;;;;9.46;92.07;98294.55;1669686;86;20541;-83
2021/09/15 05:02:23;;;;;;;;;;;;;;;9.43;92.22;98293.73;1667709;86;20181;-83
2021/09/15 05:04:49;;;;;;;;;;;;;;;9.43;91.77;98295.09;1667505;86;21003;-84
2021/09/15 05:07:17;;;;;;;;;;;;;;;9.45;91.51;98301.03;1652382;86;20146;-84
2021/09/15 05:09:44;;;;;;;;;;;;;;;9.39;91.71;98303.44;1635672;86;20205;-83
2021/09/15 05:12:10;;;;;;;;;;;;;;;9.36;91.22;98306.14;1635184;88;20205;-78
2021/09/15 05:14:37;;;;;;;;;;;;;;;9.31;92.06;98308.30;1629004;87;20163;-78
2021/09/15 05:17:04;;;;;;;;;;;;;;;9.29;92.97;98300.97;1634925;88;21003;-78
2021/09/15 05:19:31;;;;;;;;;;;;;;;9.40;92.49;98304.55;1634726;88;20199;-83
2021/09/15 05:21:58;;;;;;;;;;;;;;;9.48;91.66;98301.84;1635325;88;20220;-83
2021/09/15 05:24:24;;;;;;;;;;;;;;;9.59;92.42;98304.34;1634767;87;20146;-78
2021/09/15 05:26:51;;;;;;;;;;;;;;;9.78;92.46;98297.88;1634898;88;20205;-83
2021/09/15 05:29:18;;;;;;;;;;;;;;;9.95;92.21;98299.00;1634640;87;21764;-83
2021/09/15 05:31:45;;;;;;;;;;;;;;;10.05;91.57;98300.90;1634743;88;20166;-83
2021/09/15 05:34:12;;;;;;;;;;;;;;;10.07;90.78;98298.73;1634693;88;20150;-78
2021/09/15 05:36:39;;;;;;;;;;;;;;;10.07;91.01;98291.96;1634784;87;20744;-78
2021/09/15 05:39:06;;;;;;;;;;;;;;;10.09;90.99;98287.92;1634721;87;20086;-83
2021/09/15 05:41:33;;;;;;;;;;;;;;;10.13;91.21;98284.13;1634803;88;20943;-83
2021/09/15 05:43:59;;;;;;;;;;;;;;;10.21;91.62;98282.23;1634623;88;20151;-78
2021/09/15 05:46:27;;;;;;;;;;;;;;;10.33;91.90;98277.38;1634760;88;20241;-83
2021/09/15 05:48:53;;;;;;;;;;;;;;;10.42;92.02;98277.64;1634697;88;20151;-84
2021/09/15 05:51:20;;;;;;;;;;;;;;;10.57;91.86;98272.75;1635215;88;20212;-83
2021/09/15 05:53:47;;;;;;;;;;;;;;;10.67;91.37;98271.37;1634713;88;21010;-84
2021/09/15 05:56:14;;;;;;;;;;;;;;;10.76;91.31;98274.34;1634482;88;20164;-78
2021/09/15 05:58:41;;;;;;;;;;;;;;;10.84;90.81;98277.84;1634743;88;20177;-84
2021/09/15 06:01:07;;;;;;;;;;;;;;;10.89;91.03;98277.30;1634640;87;20433;-78
2021/09/15 06:03:34;;;;;;;;;;;;;;;11.07;91.49;98278.59;1634894;88;20437;-84
2021/09/15 06:06:01;;;;;;;;;;;;;;;11.39;91.30;98275.50;1634681;88;21704;-83
2021/09/15 06:08:28;;;;;;;;;;;;;;;11.83;90.84;98265.23;1634535;86;20137;-78
2021/09/15 06:10:56;;;;;;;;;;;;;;;12.26;89.30;98268.98;1634645;88;20458;-83
2021/09/15 06:13:22;;;;;;;;;;;;;;;12.58;88.12;98264.91;1634921;88;20163;-84
2021/09/15 06:15:49;;;;;;;;;;;;;;;12.75;87.93;98265.28;1634965;86;20150;-78
2021/09/15 06:18:16;;;;;;;;;;;;;;;12.87;87.04;98268.96;1634905;87;20955;-78
2021/09/15 06:20:43;;;;;;;;;;;;;;;12.99;87.38;98266.67;1634590;87;20134;-78
2021/09/15 06:23:13;;;;;;;;;;;;;;;13.20;87.05;98264.54;1634933;87;20159;-78
2021/09/15 06:25:42;;;;;;;;;;;;;;;13.32;86.75;98260.03;1629983;87;20150;-83
2021/09/15 06:28:09;;;;;;;;;;;;;;;13.39;86.81;98258.58;1635134;86;20438;-83
2021/09/15 06:30:35;;;;;;;;;;;;;;;13.48;87.06;98257.38;1634610;87;21230;-83
2021/09/15 06:33:02;;;;;;;;;;;;;;;13.57;86.58;98254.80;1634857;87;20183;-78
2021/09/15 06:35:29;;;;;;;;;;;;;;;13.73;86.16;98256.22;1634593;88;20513;-77
2021/09/15 06:37:56;;;;;;;;;;;;;;;14.12;85.16;98246.38;1634899;88;20713;-84
2021/09/15 06:40:22;;;;;;;;;;;;;;;14.59;84.04;98237.12;1635034;87;20162;-78
2021/09/15 06:42:50;;;;;;;;;;;;;;;14.97;82.70;98241.64;1628737;87;20912;-84
2021/09/15 06:45:17;;;;;;;;;;;;;;;15.52;80.92;98239.66;1634609;87;20167;-83
2021/09/15 06:47:44;;;;;;;;;;;;;;;16.24;82.86;98241.60;1634856;86;20193;-83
2021/09/15 06:50:11;;;;;;;;;;;;;;;16.83;83.99;98230.77;1634636;88;20316;-83
2021/09/15 06:52:39;;;;;;;;;;;;;;;17.12;79.25;98229.44;1634835;87;20465;-83
2021/09/15 06:55:06;;;;;;;;;;;;;;;17.78;81.60;98228.89;1634743;88;21670;-78
2021/09/15 06:57:33;;;;;;;;;;;;;;;17.92;79.08;98228.14;1634823;88;20201;-78
2021/09/15 07:00:00;;;;;;;;;;;;;;;18.27;79.28;98229.49;1634689;88;20146;-78
2021/09/15 07:02:26;;;;;;;;;;;;;;;18.45;77.85;98225.58;1634944;88;20205;-78
2021/09/15 07:04:53;;;;;;;;;;;;;;;19.06;77.74;98222.70;1634775;88;20094;-82
2021/09/15 07:07:20;;;;;;;;;;;;;;;19.69;76.16;98220.31;1638211;86;21016;-78
2021/09/15 07:09:47;;;;;;;;;;;;;;;19.92;71.45;98223.55;1642087;85;20134;-84
2021/09/15 07:12:14;;;;;;;;;;;;;;;20.17;65.85;98220.92;1629286;86;20181;-84
2021/09/15 07:14:41;;;;;;;;;;;;;;;20.87;69.61;98216.89;1658047;86;20150;-78
2021/09/15 07:17:07;;;;;;;;;;;;;;;21.10;68.60;98208.39;1658237;85;20341;-83
2021/09/15 07:19:34;;;;;;;;;;;;;;;21.29;60.69;98216.14;1658102;86;20948;-84
2021/09/15 07:22:01;;;;;;;;;;;;;;;22.09;66.43;98214.05;1658329;86;20457;-78
2021/09/15 07:24:28;;;;;;;;;;;;;;;21.33;59.31;98219.80;1643273;86;20137;-78
2021/09/15 07:26:55;;;;;;;;;;;;;;;22.04;58.87;98220.56;1641413;87;20347;-83
2021/09/15 07:29:21;;;;;;;;;;;;;;;22.82;64.02;98210.92;1641235;85;20214;-79
2021/09/15 07:31:48;;;;;;;;;;;;;;;22.96;63.15;98212.67;1641352;87;20948;-79
2021/09/15 07:34:15;;;;;;;;;;;;;;;23.37;61.86;98214.65;1641547;87;20166;-79
2021/09/15 07:36:42;;;;;;;;;;;;;;;23.30;59.28;98206.98;1641123;87;20182;-79
2021/09/15 07:39:09;;;;;;;;;;;;;;;23.80;61.12;98217.03;1641267;87;20130;-84
2021/09/15 07:41:36;;;;;;;;;;;;;;;24.48;60.97;98215.09;1641225;87;20171;-84
2021/09/15 07:44:03;;;;;;;;;;;;;;;24.50;53.25;98214.14;1628780;86;20895;-79
2021/09/15 07:46:30;;;;;;;;;;;;;;;24.63;51.64;98202.32;1643598;85;20134;-84
2021/09/15 07:48:57;;;;;;;;;;;;;;;25.60;52.15;98204.13;1641323;85;20434;-84
2021/09/15 07:51:24;;;;;;;;;;;;;;;26.18;52.03;98200.16;1640909;86;20438;-79
2021/09/15 07:53:51;;;;;;;;;;;;;;;26.41;47.18;98199.47;1641484;85;20162;-79
2021/09/15 07:56:19;;;;;;;;;;;;;;;27.23;51.64;98196.88;1641099;85;21067;-79
2021/09/15 07:58:46;;;;;;;;;;;;;;;27.00;52.31;98203.20;1627465;87;20167;-84
2021/09/15 08:01:12;;;;;;;;;;;;;;;27.38;49.06;98195.61;1641341;85;20150;-84
2021/09/15 08:03:39;;;;;;;;;;;;;;;27.44;49.85;98195.45;1641167;87;20158;-79
2021/09/15 08:06:07;;;;;;;;;;;;;;;27.56;45.63;98190.95;1641223;87;20165;-79
2021/09/15 08:08:34;;;;;;;;;;;;;;;26.94;44.48;98188.88;1641092;86;21631;-85
2021/09/15 08:11:01;;;;;;;;;;;;;;;27.48;47.11;98190.70;1626938;87;20188;-79
2021/09/15 08:13:28;;;;;;;;;;;;;;;27.90;44.95;98183.81;1653046;87;20150;-79
2021/09/15 08:15:55;;;;;;;;;;;;;;;28.32;45.80;98182.61;1641577;87;20138;-84
2021/09/15 08:18:21;;;;;;;;;;;;;;;28.97;42.48;98188.31;1641394;87;20217;-79
2021/09/15 08:20:48;;;;;;;;;;;;;;;29.31;41.38;98178.94;1641123;87;20894;-79
2021/09/15 08:23:17;;;;;;;;;;;;;;;29.77;42.59;98184.48;1641614;87;20122;-79
2021/09/15 08:25:44;;;;;;;;;;;;;;;30.11;38.59;98185.39;1629770;86;20167;-79
2021/09/15 08:28:11;;;;;;;;;;;;;;;31.04;37.81;98182.25;1641381;87;20225;-79
2021/09/15 08:30:38;;;;;;;;;;;;;;;31.33;37.24;98173.63;1641269;87;20149;-79
2021/09/15 08:33:05;;;;;;;;;;;;;;;31.33;34.23;98176.42;1640631;87;20945;-79
2021/09/15 08:35:32;;;;;;;;;;;;;;;31.79;33.45;98176.56;1640089;87;20137;-85
2021/09/15 08:37:59;;;;;;;;;;;;;;;32.49;36.84;98176.93;1629046;87;20233;-79
2021/09/15 08:40:26;;;;;;;;;;;;;;;33.46;34.94;98182.62;1652805;85;20418;-79
2021/09/15 08:42:53;;;;;;;;;;;;;;;34.13;36.04;98176.95;1647907;85;20552;-79
2021/09/15 08:45:23;;;;;;;;;;;;;;;34.60;37.84;98179.56;1641104;87;21733;-85
2021/09/15 08:47:49;;;;;;;;;;;;;;;33.80;33.28;98179.58;1641016;87;20150;-84
2021/09/15 08:50:16;;;;;;;;;;;;;;;31.95;35.38;98176.78;1641440;85;20418;-84
2021/09/15 08:52:42;;;;;;;;;;;;;;;29.92;38.66;98173.46;1641315;87;20576;-79
2021/09/15 08:55:09;;;;;;;;;;;;;;;29.20;41.47;98167.80;1641239;87;20174;-84
2021/09/15 08:57:36;;;;;;;;;;;;;;;28.62;42.17;98169.73;1641377;87;21114;-79
2021/09/15 09:00:08;;;;;;;;;;;;;;;27.80;43.73;98163.09;1641319;87;20149;-79
2021/09/15 09:02:40;;;;;;;;;;;;;;;26.93;44.55;98158.69;1641512;85;20425;-84
2021/09/15 09:05:08;;;;;;;;;;;;;;;26.25;45.87;98164.14;1641195;87;20150;-79
2021/09/15 09:07:35;;;;;;;;;;;;;;;25.62;47.40;98158.77;1641346;85;20170;-79
2021/09/15 09:10:06;;;;;;;;;;;;;;;25.33;47.02;98152.03;1641054;87;21055;-84
2021/09/15 09:12:35;;;;;;;;;;;;;;;24.89;48.91;98148.94;1640819;86;20149;-79
2021/09/15 09:15:22;;;;;;;;;;;;;;;24.53;50.25;98145.56;1640926;85;20197;-79
2021/09/15 09:17:48;;;;;;;;;;;;;;;24.29;49.89;98141.14;1641204;86;20158;-84
2021/09/15 09:20:27;;;;;;;;;;;;;;;23.98;51.69;98142.11;1641152;87;20150;-83
2021/09/15 09:23:11;;;;;;;;;;;;;;;23.79;52.71;98136.00;1641382;87;20959;-84
2021/09/15 09:25:47;;;;;;;;;;;;;;;23.68;53.21;98130.84;1636511;87;20200;-79
2021/09/15 09:28:19;;;;;;;;;;;;;;;23.58;54.02;98125.83;1641307;87;20153;-78
2021/09/15 09:30:47;;;;;;;;;;;;;;;23.47;53.55;98125.61;1641037;87;20142;-84
2021/09/15 09:33:14;;;;;;;;;;;;;;;23.36;54.74;98118.47;1641228;85;20146;-78
2021/09/15 09:35:51;;;;;;;;;;;;;;;23.43;54.34;98120.59;1641088;87;21012;-78
2021/09/15 09:38:31;;;;;;;;;;;;;;;23.46;54.57;98117.68;1640741;86;20170;-83
2021/09/15 09:41:15;;;;;;;;;;;;;;;23.48;54.01;98116.73;1641242;87;20163;-78
2021/09/15 09:43:43;;;;;;;;;;;;;;;23.58;52.54;98115.56;1637030;87;20448;-84
2021/09/15 09:46:10;;;;;;;;;;;;;;;23.58;55.49;98114.77;1617249;87;20102;-83
2021/09/15 09:48:40;;;;;;;;;;;;;;;23.62;54.32;98110.95;1642318;87;21032;-84
2021/09/15 09:51:29;;;;;;;;;;;;;;;23.61;54.59;98112.13;1641208;87;20146;-84
2021/09/15 09:54:15;;;;;;;;;;;;;;;23.61;54.85;98109.36;1641323;87;20429;-78
2021/09/15 09:56:43;;;;;;;;;;;;;;;23.54;53.82;98114.70;1626970;88;20430;-84
2021/09/15 09:59:10;;;;;;;;;;;;;;;23.53;52.71;98106.19;1627401;88;20135;-79
2021/09/15 10:01:51;;;;;;;;;;;;;;;23.62;52.94;98107.39;1636142;87;20956;-81
2021/09/15 10:04:19;;;;;;;;;;;;;;;23.63;52.99;98104.84;1651042;87;20163;-84
2021/09/15 10:06:46;;;;;;;;;;;;;;;23.66;51.17;98104.69;1651179;86;20171;-84
2021/09/15 10:09:13;;;;;;;;;;;;;;;23.63;48.66;98099.31;1646688;86;20441;-79
2021/09/15 10:11:41;;;;;;;;;;;;;;;23.58;49.97;98105.89;1641213;87;20431;-83
2021/09/15 10:14:11;;;;;;;;;;;;;;;23.64;51.21;98102.30;1641297;87;20955;-83
2021/09/15 10:16:44;;;;;;;;;;;;;;;23.73;50.92;98104.26;1644540;87;20466;-79
2021/09/15 10:19:12;;;;;;;;;;;;;;;23.72;51.57;98108.77;1650307;87;20453;-83
2021/09/15 10:21:39;;;;;;;;;;;;;;;23.76;51.35;98104.93;1649460;87;20146;-79
2021/09/15 10:24:06;;;;;;;;;;;;;;;23.83;51.47;98103.66;1641330;85;20154;-79
2021/09/15 10:26:37;;;;;;;;;;;;;;;23.80;51.29;98102.22;1641209;87;20955;-78
2021/09/15 10:29:26;;;;;;;;;;;;;;;23.86;51.89;98098.80;1641284;87;20540;-83
2021/09/15 10:31:58;;;;;;;;;;;;;;;23.86;51.94;98096.63;1627269;88;20163;-79
2021/09/15 10:34:41;;;;;;;;;;;;;;;23.81;52.49;98090.78;1627340;88;20194;-83
2021/09/15 10:37:14;;;;;;;;;;;;;;;23.87;52.49;98090.72;1627159;88;20434;-78
2021/09/15 10:40:01;;;;;;;;;;;;;;;23.90;51.75;98091.94;1635143;87;21040;-83
2021/09/15 10:42:39;;;;;;;;;;;;;;;23.96;52.11;98087.72;1641037;87;20429;-84
2021/09/15 10:45:13;;;;;;;;;;;;;;;24.04;52.28;98078.97;1641193;87;20159;-84
2021/09/15 10:47:50;;;;;;;;;;;;;;;24.14;51.78;98082.52;1641053;86;20879;-79
2021/09/15 10:50:34;;;;;;;;;;;;;;;24.26;52.25;98076.80;1641253;87;20134;-84
2021/09/15 10:53:05;;;;;;;;;;;;;;;24.22;50.12;98077.33;1627769;88;20929;-83
2021/09/15 10:56:02;;;;;;;;;;;;;;;24.21;50.67;98070.19;1639381;87;20180;-83
2021/09/15 10:58:29;;;;;;;;;;;;;;;24.25;50.83;98068.86;1640411;87;20214;-84
2021/09/15 11:01:03;;;;;;;;;;;;;;;24.37;50.35;98071.50;1639836;87;20159;-84
2021/09/15 11:03:32;;;;;;;;;;;;;;;24.44;50.59;98068.82;1641353;87;20422;-79
2021/09/15 11:06:18;;;;;;;;;;;;;;;24.40;50.16;98064.63;1641333;85;20958;-84
2021/09/15 11:08:48;;;;;;;;;;;;;;;24.39;51.09;98063.61;1654337;85;20220;-78
2021/09/15 11:11:27;;;;;;;;;;;;;;;24.44;51.29;98058.58;1667208;86;20162;-78
2021/09/15 11:14:01;;;;;;;;;;;;;;;24.42;50.35;98053.97;1667926;86;20134;-78
2021/09/15 11:16:37;;;;;;;;;;;;;;;24.50;49.84;98055.47;1665748;86;20170;-84
2021/09/15 11:19:07;;;;;;;;;;;;;;;24.59;50.85;98062.36;1655896;86;21841;-80
2021/09/15 11:21:43;;;;;;;;;;;;;;;24.45;48.44;98054.62;1644279;86;20185;-84
2021/09/15 11:24:15;;;;;;;;;;;;;;;24.56;50.43;98058.16;1667448;84;20154;-78
2021/09/15 11:26:52;;;;;;;;;;;;;;;24.62;50.12;98056.68;1667604;86;20170;-79
2021/09/15 11:29:42;;;;;;;;;;;;;;;24.59;50.37;98052.66;1667916;86;20134;-78
2021/09/15 11:32:11;;;;;;;;;;;;;;;24.63;49.50;98048.58;1659913;85;21043;-78
2021/09/15 11:34:41;;;;;;;;;;;;;;;24.71;50.61;98048.91;1660587;86;20138;-83
2021/09/15 11:37:18;;;;;;;;;;;;;;;24.76;50.05;98042.44;1660110;85;20150;-84
2021/09/15 11:39:53;;;;;;;;;;;;;;;24.87;50.33;98039.06;1639690;86;20764;-84
2021/09/15 11:42:22;;;;;;;;;;;;;;;24.94;49.79;98039.14;1660621;86;20201;-78
2021/09/15 11:44:49;;;;;;;;;;;;;;;24.95;49.57;98036.02;1660588;85;21022;-78
2021/09/15 11:47:27;;;;;;;;;;;;;;;24.93;48.56;98032.80;1640009;86;20142;-80
2021/09/15 11:49:54;;;;;;;;;;;;;;;24.88;47.94;98026.80;1660431;86;20146;-84
2021/09/15 11:52:21;;;;;;;;;;;;;;;24.98;49.02;98031.69;1660555;86;20142;-78
2021/09/15 11:54:53;;;;;;;;;;;;;;;24.93;48.19;98025.07;1660802;85;20154;-78
2021/09/15 11:57:19;;;;;;;;;;;;;;;24.97;48.87;98018.42;1660466;86;21031;-78
2021/09/15 11:59:46;;;;;;;;;;;;;;;24.94;48.80;98016.38;1660481;85;20138;-78
2021/09/15 12:02:14;;;;;;;;;;;;;;;25.02;48.04;98019.49;1640007;86;20151;-78
2021/09/15 12:04:43;;;;;;;;;;;;;;;25.15;48.72;98018.69;1660546;86;20534;-77
2021/09/15 12:07:09;;;;;;;;;;;;;;;25.06;47.39;98011.24;1660624;86;20158;-78
2021/09/15 12:09:37;;;;;;;;;;;;;;;25.08;47.85;98011.66;1641813;85;21023;-78
2021/09/15 12:12:08;;;;;;;;;;;;;;;25.10;48.43;98016.23;1628796;87;20126;-78
2021/09/15 12:14:35;;;;;;;;;;;;;;;25.14;47.76;98008.78;1634718;87;20434;-84
2021/09/15 12:17:04;;;;;;;;;;;;;;;25.15;48.12;98004.83;1634759;87;20179;-82
2021/09/15 12:19:31;;;;;;;;;;;;;;;25.25;48.37;98002.78;1634696;88;20201;-83
2021/09/15 12:21:58;;;;;;;;;;;;;;;25.25;48.31;97994.45;1634679;88;21018;-78
2021/09/15 12:24:26;;;;;;;;;;;;;;;25.38;48.86;97995.58;1634664;88;20186;-83
2021/09/15 12:26:53;;;;;;;;;;;;;;;25.40;49.14;97995.44;1634721;88;20426;-79
2021/09/15 12:29:21;;;;;;;;;;;;;;;25.36;47.45;97993.78;1634510;87;20508;-78
2021/09/15 12:32:00;;;;;;;;;;;;;;;25.40;48.47;97992.66;1634765;87;20168;-78
2021/09/15 12:34:34;;;;;;;;;;;;;;;25.40;48.29;97982.95;1634724;88;21194;-83
2021/09/15 12:37:18;;;;;;;;;;;;;;;25.39;48.43;97982.75;1634550;88;20190;-83
2021/09/15 12:39:50;;;;;;;;;;;;;;;25.53;48.15;97983.48;1634905;86;20402;-78
2021/09/15 12:42:25;;;;;;;;;;;;;;;25.54;48.26;97976.16;1634541;87;20149;-84
2021/09/15 12:45:03;;;;;;;;;;;;;;;25.59;48.42;97971.67;1634411;86;20142;-78
2021/09/15 12:47:36;;;;;;;;;;;;;;;25.64;49.25;97972.50;1634649;88;21631;-78
2021/09/15 12:50:26;;;;;;;;;;;;;;;25.62;48.01;97974.86;1630609;86;20166;-78
2021/09/15 12:53:12;;;;;;;;;;;;;;;25.63;48.92;97959.81;1630281;87;20154;-83
2021/09/15 12:55:39;;;;;;;;;;;;;;;25.70;48.47;97963.45;1633813;88;20786;-84
2021/09/15 12:58:07;;;;;;;;;;;;;;;25.77;48.27;97953.05;1634345;85;20438;-84
2021/09/15 13:00:38;;;;;;;;;;;;;;;25.76;48.30;97952.27;1634561;88;20959;-84
2021/09/15 13:03:06;;;;;;;;;;;;;;;25.81;48.61;97952.52;1634092;87;20464;-84